sensor_id;sensor_type;location;lat;lon;timestamp;P1;durP1;ratioP1;P2;durP2;ratioP2
34144;SDS011;69555;53.014;8.886;2023-11-19T00:00:01;11.98;;;7.82;;
34144;SDS011;69555;53.014;8.886;2023-11-19T00:02:31;12.40;;;8.43;;
34144;SDS011;69555;53.014;8.886;2023-11-19T00:04:57;11.82;;;9.00;;
34144;SDS011;69555;53.014;8.886;2023-11-19T00:07:24;18.45;;;9.63;;
34144;SDS011;69555;53.014;8.886;2023-11-19T00:09:51;14.23;;;10.02;;
34144;SDS011;69555;53.014;8.886;2023-11-19T00:12:17;14.73;;;9.45;;
34144;SDS011;69555;53.014;8.886;2023-11-19T00:14:45;14.25;;;9.27;;
34144;SDS011;69555;53.014;8.886;2023-11-19T00:17:12;18.17;;;9.07;;
34144;SDS011;69555;53.014;8.886;2023-11-19T00:19:38;16.40;;;11.43;;
34144;SDS011;69555;53.014;8.886;2023-11-19T00:22:04;17.08;;;11.60;;
34144;SDS011;69555;53.014;8.886;2023-11-19T00:24:31;16.13;;;11.73;;
34144;SDS011;69555;53.014;8.886;2023-11-19T00:26:57;16.67;;;11.57;;
34144;SDS011;69555;53.014;8.886;2023-11-19T00:29:24;18.25;;;11.82;;
34144;SDS011;69555;53.014;8.886;2023-11-19T00:31:51;17.65;;;11.07;;
34144;SDS011;69555;53.014;8.886;2023-11-19T00:34:18;21.17;;;13.02;;
34144;SDS011;69555;53.014;8.886;2023-11-19T00:36:47;17.98;;;11.95;;
34144;SDS011;69555;53.014;8.886;2023-11-19T00:39:14;21.58;;;13.70;;
34144;SDS011;69555;53.014;8.886;2023-11-19T00:41:41;22.33;;;13.88;;
34144;SDS011;69555;53.014;8.886;2023-11-19T00:44:08;24.65;;;14.70;;
34144;SDS011;69555;53.014;8.886;2023-11-19T00:46:35;25.23;;;16.08;;
34144;SDS011;69555;53.014;8.886;2023-11-19T00:49:01;24.00;;;14.85;;
34144;SDS011;69555;53.014;8.886;2023-11-19T00:51:29;25.88;;;15.52;;
34144;SDS011;69555;53.014;8.886;2023-11-19T00:53:57;25.92;;;16.35;;
34144;SDS011;69555;53.014;8.886;2023-11-19T00:56:25;26.27;;;15.80;;
34144;SDS011;69555;53.014;8.886;2023-11-19T00:58:52;28.00;;;16.50;;
34144;SDS011;69555;53.014;8.886;2023-11-19T01:01:18;24.65;;;16.33;;
34144;SDS011;69555;53.014;8.886;2023-11-19T01:03:45;24.60;;;15.63;;
34144;SDS011;69555;53.014;8.886;2023-11-19T01:06:12;27.63;;;16.42;;
34144;SDS011;69555;53.014;8.886;2023-11-19T01:08:40;26.17;;;16.52;;
34144;SDS011;69555;53.014;8.886;2023-11-19T01:11:18;29.73;;;17.55;;
34144;SDS011;69555;53.014;8.886;2023-11-19T01:13:47;26.15;;;16.77;;
34144;SDS011;69555;53.014;8.886;2023-11-19T01:16:14;26.40;;;18.65;;
34144;SDS011;69555;53.014;8.886;2023-11-19T01:18:41;24.90;;;15.77;;
34144;SDS011;69555;53.014;8.886;2023-11-19T01:21:08;26.27;;;17.25;;
34144;SDS011;69555;53.014;8.886;2023-11-19T01:23:35;25.17;;;16.67;;
34144;SDS011;69555;53.014;8.886;2023-11-19T01:26:01;25.33;;;16.42;;
34144;SDS011;69555;53.014;8.886;2023-11-19T01:28:28;30.38;;;16.63;;
34144;SDS011;69555;53.014;8.886;2023-11-19T01:30:57;27.23;;;17.25;;
34144;SDS011;69555;53.014;8.886;2023-11-19T01:33:23;29.90;;;17.05;;
34144;SDS011;69555;53.014;8.886;2023-11-19T01:35:49;26.55;;;16.77;;
34144;SDS011;69555;53.014;8.886;2023-11-19T01:38:16;32.15;;;17.80;;
34144;SDS011;69555;53.014;8.886;2023-11-19T01:40:43;28.63;;;17.23;;
34144;SDS011;69555;53.014;8.886;2023-11-19T01:43:09;30.92;;;16.67;;
34144;SDS011;69555;53.014;8.886;2023-11-19T01:45:37;25.73;;;16.92;;
34144;SDS011;69555;53.014;8.886;2023-11-19T01:48:08;26.20;;;17.92;;
34144;SDS011;69555;53.014;8.886;2023-11-19T01:50:37;30.08;;;18.13;;
34144;SDS011;69555;53.014;8.886;2023-11-19T01:53:04;30.95;;;18.02;;
34144;SDS011;69555;53.014;8.886;2023-11-19T01:55:31;29.67;;;18.35;;
34144;SDS011;69555;53.014;8.886;2023-11-19T01:57:59;27.80;;;18.08;;
34144;SDS011;69555;53.014;8.886;2023-11-19T02:00:28;28.23;;;17.60;;
34144;SDS011;69555;53.014;8.886;2023-11-19T02:02:55;32.22;;;18.15;;
34144;SDS011;69555;53.014;8.886;2023-11-19T02:05:22;32.05;;;19.80;;
34144;SDS011;69555;53.014;8.886;2023-11-19T02:07:48;31.20;;;18.40;;
34144;SDS011;69555;53.014;8.886;2023-11-19T02:10:16;31.92;;;19.42;;
34144;SDS011;69555;53.014;8.886;2023-11-19T02:12:45;32.97;;;18.07;;
34144;SDS011;69555;53.014;8.886;2023-11-19T02:15:12;39.67;;;20.23;;
34144;SDS011;69555;53.014;8.886;2023-11-19T02:17:38;38.03;;;20.33;;
34144;SDS011;69555;53.014;8.886;2023-11-19T02:20:06;36.33;;;19.88;;
34144;SDS011;69555;53.014;8.886;2023-11-19T02:22:37;37.97;;;21.58;;
34144;SDS011;69555;53.014;8.886;2023-11-19T02:25:04;37.67;;;22.10;;
34144;SDS011;69555;53.014;8.886;2023-11-19T02:27:53;38.47;;;20.88;;
34144;SDS011;69555;53.014;8.886;2023-11-19T02:30:23;43.78;;;23.92;;
34144;SDS011;69555;53.014;8.886;2023-11-19T02:32:54;45.65;;;25.50;;
34144;SDS011;69555;53.014;8.886;2023-11-19T02:35:25;44.22;;;23.05;;
34144;SDS011;69555;53.014;8.886;2023-11-19T02:37:58;47.15;;;25.90;;
34144;SDS011;69555;53.014;8.886;2023-11-19T02:40:30;46.25;;;24.90;;
34144;SDS011;69555;53.014;8.886;2023-11-19T02:42:56;47.83;;;25.75;;
34144;SDS011;69555;53.014;8.886;2023-11-19T02:45:24;45.70;;;25.40;;
34144;SDS011;69555;53.014;8.886;2023-11-19T02:47:51;49.28;;;26.88;;
34144;SDS011;69555;53.014;8.886;2023-11-19T02:50:19;49.33;;;23.77;;
34144;SDS011;69555;53.014;8.886;2023-11-19T02:52:51;49.67;;;26.83;;
34144;SDS011;69555;53.014;8.886;2023-11-19T02:55:19;47.15;;;25.33;;
34144;SDS011;69555;53.014;8.886;2023-11-19T02:57:46;56.53;;;26.20;;
34144;SDS011;69555;53.014;8.886;2023-11-19T03:00:14;48.60;;;24.63;;
34144;SDS011;69555;53.014;8.886;2023-11-19T03:02:44;48.10;;;27.13;;
34144;SDS011;69555;53.014;8.886;2023-11-19T03:05:15;49.10;;;26.67;;
34144;SDS011;69555;53.014;8.886;2023-11-19T03:07:43;50.40;;;26.38;;
34144;SDS011;69555;53.014;8.886;2023-11-19T03:10:10;47.78;;;25.40;;
34144;SDS011;69555;53.014;8.886;2023-11-19T03:12:40;52.85;;;27.20;;
34144;SDS011;69555;53.014;8.886;2023-11-19T03:15:07;45.40;;;24.83;;
34144;SDS011;69555;53.014;8.886;2023-11-19T03:17:41;47.20;;;25.70;;
34144;SDS011;69555;53.014;8.886;2023-11-19T03:20:10;54.58;;;26.83;;
34144;SDS011;69555;53.014;8.886;2023-11-19T03:22:38;44.30;;;24.03;;
34144;SDS011;69555;53.014;8.886;2023-11-19T03:25:04;53.30;;;25.80;;
34144;SDS011;69555;53.014;8.886;2023-11-19T03:30:05;47.58;;;25.63;;
34144;SDS011;69555;53.014;8.886;2023-11-19T03:32:32;46.08;;;25.73;;
34144;SDS011;69555;53.014;8.886;2023-11-19T03:35:01;52.30;;;25.70;;
34144;SDS011;69555;53.014;8.886;2023-11-19T03:37:31;50.28;;;25.60;;
34144;SDS011;69555;53.014;8.886;2023-11-19T03:39:58;50.30;;;26.08;;
34144;SDS011;69555;53.014;8.886;2023-11-19T03:42:31;53.72;;;26.58;;
34144;SDS011;69555;53.014;8.886;2023-11-19T03:44:58;52.78;;;26.63;;
34144;SDS011;69555;53.014;8.886;2023-11-19T03:47:25;53.33;;;27.98;;
34144;SDS011;69555;53.014;8.886;2023-11-19T03:49:52;54.47;;;28.15;;
34144;SDS011;69555;53.014;8.886;2023-11-19T03:52:18;54.72;;;28.05;;
34144;SDS011;69555;53.014;8.886;2023-11-19T03:54:45;52.22;;;26.65;;
34144;SDS011;69555;53.014;8.886;2023-11-19T03:57:12;57.65;;;29.02;;
34144;SDS011;69555;53.014;8.886;2023-11-19T03:59:39;61.13;;;28.63;;
34144;SDS011;69555;53.014;8.886;2023-11-19T04:02:06;59.92;;;27.15;;
34144;SDS011;69555;53.014;8.886;2023-11-19T04:04:32;58.20;;;29.70;;
34144;SDS011;69555;53.014;8.886;2023-11-19T04:07:00;52.50;;;28.55;;
34144;SDS011;69555;53.014;8.886;2023-11-19T04:09:31;56.10;;;28.00;;
34144;SDS011;69555;53.014;8.886;2023-11-19T04:12:02;54.40;;;27.95;;
34144;SDS011;69555;53.014;8.886;2023-11-19T04:14:30;54.80;;;29.27;;
34144;SDS011;69555;53.014;8.886;2023-11-19T04:16:56;57.63;;;27.42;;
34144;SDS011;69555;53.014;8.886;2023-11-19T04:19:21;64.13;;;29.92;;
34144;SDS011;69555;53.014;8.886;2023-11-19T04:21:48;55.95;;;27.83;;
34144;SDS011;69555;53.014;8.886;2023-11-19T04:24:15;68.30;;;29.10;;
34144;SDS011;69555;53.014;8.886;2023-11-19T04:26:41;60.25;;;28.30;;
34144;SDS011;69555;53.014;8.886;2023-11-19T04:29:09;75.60;;;28.98;;
34144;SDS011;69555;53.014;8.886;2023-11-19T04:31:37;59.88;;;25.90;;
34144;SDS011;69555;53.014;8.886;2023-11-19T04:34:05;55.55;;;26.80;;
34144;SDS011;69555;53.014;8.886;2023-11-19T04:36:32;56.15;;;24.63;;
34144;SDS011;69555;53.014;8.886;2023-11-19T04:38:59;55.38;;;26.40;;
34144;SDS011;69555;53.014;8.886;2023-11-19T04:41:27;59.38;;;26.40;;
34144;SDS011;69555;53.014;8.886;2023-11-19T04:43:54;55.38;;;28.92;;
34144;SDS011;69555;53.014;8.886;2023-11-19T04:46:21;70.65;;;27.27;;
34144;SDS011;69555;53.014;8.886;2023-11-19T04:48:49;59.65;;;25.70;;
34144;SDS011;69555;53.014;8.886;2023-11-19T04:51:17;56.22;;;25.48;;
34144;SDS011;69555;53.014;8.886;2023-11-19T04:53:43;60.38;;;25.23;;
34144;SDS011;69555;53.014;8.886;2023-11-19T04:56:11;60.30;;;27.48;;
34144;SDS011;69555;53.014;8.886;2023-11-19T04:58:38;47.30;;;23.38;;
34144;SDS011;69555;53.014;8.886;2023-11-19T05:01:05;56.75;;;25.27;;
34144;SDS011;69555;53.014;8.886;2023-11-19T05:03:31;56.60;;;25.90;;
34144;SDS011;69555;53.014;8.886;2023-11-19T05:05:58;48.45;;;23.20;;
34144;SDS011;69555;53.014;8.886;2023-11-19T05:08:25;62.38;;;25.50;;
34144;SDS011;69555;53.014;8.886;2023-11-19T05:10:52;47.03;;;21.67;;
34144;SDS011;69555;53.014;8.886;2023-11-19T05:13:18;54.15;;;23.25;;
34144;SDS011;69555;53.014;8.886;2023-11-19T05:15:45;50.50;;;22.60;;
34144;SDS011;69555;53.014;8.886;2023-11-19T05:18:12;50.60;;;22.02;;
34144;SDS011;69555;53.014;8.886;2023-11-19T05:20:37;49.95;;;20.88;;
34144;SDS011;69555;53.014;8.886;2023-11-19T05:23:04;47.08;;;20.02;;
34144;SDS011;69555;53.014;8.886;2023-11-19T05:25:30;50.97;;;23.63;;
34144;SDS011;69555;53.014;8.886;2023-11-19T05:27:57;58.00;;;21.27;;
34144;SDS011;69555;53.014;8.886;2023-11-19T05:30:24;50.97;;;19.83;;
34144;SDS011;69555;53.014;8.886;2023-11-19T05:32:51;53.25;;;19.33;;
34144;SDS011;69555;53.014;8.886;2023-11-19T05:35:17;52.28;;;19.58;;
34144;SDS011;69555;53.014;8.886;2023-11-19T05:37:44;40.20;;;19.40;;
34144;SDS011;69555;53.014;8.886;2023-11-19T05:40:10;52.05;;;18.45;;
34144;SDS011;69555;53.014;8.886;2023-11-19T05:42:43;45.40;;;18.13;;
34144;SDS011;69555;53.014;8.886;2023-11-19T05:45:14;44.40;;;18.33;;
34144;SDS011;69555;53.014;8.886;2023-11-19T05:47:41;34.83;;;17.05;;
34144;SDS011;69555;53.014;8.886;2023-11-19T05:50:08;52.38;;;18.33;;
34144;SDS011;69555;53.014;8.886;2023-11-19T05:52:36;55.63;;;20.83;;
34144;SDS011;69555;53.014;8.886;2023-11-19T05:55:02;45.33;;;17.33;;
34144;SDS011;69555;53.014;8.886;2023-11-19T05:57:32;49.53;;;17.58;;
34144;SDS011;69555;53.014;8.886;2023-11-19T06:00:01;38.53;;;15.98;;
34144;SDS011;69555;53.014;8.886;2023-11-19T06:02:30;49.88;;;15.57;;
34144;SDS011;69555;53.014;8.886;2023-11-19T06:04:59;49.58;;;14.45;;
34144;SDS011;69555;53.014;8.886;2023-11-19T06:07:25;51.17;;;16.35;;
34144;SDS011;69555;53.014;8.886;2023-11-19T06:09:52;40.20;;;12.32;;
34144;SDS011;69555;53.014;8.886;2023-11-19T06:12:19;44.78;;;11.48;;
34144;SDS011;69555;53.014;8.886;2023-11-19T06:14:45;37.50;;;10.95;;
34144;SDS011;69555;53.014;8.886;2023-11-19T06:17:12;39.63;;;11.07;;
34144;SDS011;69555;53.014;8.886;2023-11-19T06:19:39;42.28;;;9.95;;
34144;SDS011;69555;53.014;8.886;2023-11-19T06:22:05;39.70;;;10.27;;
34144;SDS011;69555;53.014;8.886;2023-11-19T06:24:35;35.88;;;10.38;;
34144;SDS011;69555;53.014;8.886;2023-11-19T06:27:02;45.90;;;10.05;;
34144;SDS011;69555;53.014;8.886;2023-11-19T06:29:31;54.05;;;14.52;;
34144;SDS011;69555;53.014;8.886;2023-11-19T06:31:58;48.15;;;9.15;;
34144;SDS011;69555;53.014;8.886;2023-11-19T06:34:24;36.58;;;8.20;;
34144;SDS011;69555;53.014;8.886;2023-11-19T06:36:51;49.85;;;9.18;;
34144;SDS011;69555;53.014;8.886;2023-11-19T06:39:19;51.58;;;7.70;;
34144;SDS011;69555;53.014;8.886;2023-11-19T06:41:45;54.65;;;11.52;;
34144;SDS011;69555;53.014;8.886;2023-11-19T06:44:12;51.45;;;8.30;;
34144;SDS011;69555;53.014;8.886;2023-11-19T06:46:39;45.47;;;9.35;;
34144;SDS011;69555;53.014;8.886;2023-11-19T06:49:06;39.45;;;8.55;;
34144;SDS011;69555;53.014;8.886;2023-11-19T06:54:07;32.78;;;7.97;;
34144;SDS011;69555;53.014;8.886;2023-11-19T06:56:33;34.03;;;7.03;;
34144;SDS011;69555;53.014;8.886;2023-11-19T06:58:59;38.28;;;7.85;;
34144;SDS011;69555;53.014;8.886;2023-11-19T07:01:26;33.88;;;7.00;;
34144;SDS011;69555;53.014;8.886;2023-11-19T07:03:53;34.53;;;8.40;;
34144;SDS011;69555;53.014;8.886;2023-11-19T07:06:20;37.75;;;8.85;;
34144;SDS011;69555;53.014;8.886;2023-11-19T07:08:46;48.90;;;11.60;;
34144;SDS011;69555;53.014;8.886;2023-11-19T07:11:12;40.20;;;7.97;;
34144;SDS011;69555;53.014;8.886;2023-11-19T07:13:41;39.55;;;8.35;;
34144;SDS011;69555;53.014;8.886;2023-11-19T07:16:08;39.97;;;7.65;;
34144;SDS011;69555;53.014;8.886;2023-11-19T07:18:36;41.80;;;8.18;;
34144;SDS011;69555;53.014;8.886;2023-11-19T07:21:03;50.80;;;8.07;;
34144;SDS011;69555;53.014;8.886;2023-11-19T07:23:35;41.05;;;8.00;;
34144;SDS011;69555;53.014;8.886;2023-11-19T07:26:04;44.40;;;7.93;;
34144;SDS011;69555;53.014;8.886;2023-11-19T07:28:34;42.92;;;7.40;;
34144;SDS011;69555;53.014;8.886;2023-11-19T07:31:01;42.45;;;8.80;;
34144;SDS011;69555;53.014;8.886;2023-11-19T07:33:28;53.42;;;8.63;;
34144;SDS011;69555;53.014;8.886;2023-11-19T07:35:55;45.42;;;8.98;;
34144;SDS011;69555;53.014;8.886;2023-11-19T07:38:22;49.58;;;10.98;;
34144;SDS011;69555;53.014;8.886;2023-11-19T07:40:49;56.13;;;10.57;;
34144;SDS011;69555;53.014;8.886;2023-11-19T07:43:16;61.72;;;18.02;;
34144;SDS011;69555;53.014;8.886;2023-11-19T07:45:42;45.17;;;13.18;;
34144;SDS011;69555;53.014;8.886;2023-11-19T07:48:13;47.55;;;10.73;;
34144;SDS011;69555;53.014;8.886;2023-11-19T07:50:40;65.38;;;12.57;;
34144;SDS011;69555;53.014;8.886;2023-11-19T07:55:36;51.95;;;12.73;;
34144;SDS011;69555;53.014;8.886;2023-11-19T07:58:02;50.53;;;8.82;;
34144;SDS011;69555;53.014;8.886;2023-11-19T08:00:29;44.72;;;7.40;;
34144;SDS011;69555;53.014;8.886;2023-11-19T08:02:56;41.30;;;9.13;;
34144;SDS011;69555;53.014;8.886;2023-11-19T08:05:23;58.00;;;9.68;;
34144;SDS011;69555;53.014;8.886;2023-11-19T08:07:51;37.15;;;7.45;;
34144;SDS011;69555;53.014;8.886;2023-11-19T08:10:19;43.15;;;5.75;;
34144;SDS011;69555;53.014;8.886;2023-11-19T08:12:46;56.45;;;13.88;;
34144;SDS011;69555;53.014;8.886;2023-11-19T08:15:13;36.90;;;8.30;;
34144;SDS011;69555;53.014;8.886;2023-11-19T08:17:40;41.15;;;6.82;;
34144;SDS011;69555;53.014;8.886;2023-11-19T08:20:07;42.50;;;8.18;;
34144;SDS011;69555;53.014;8.886;2023-11-19T08:22:37;73.80;;;15.68;;
34144;SDS011;69555;53.014;8.886;2023-11-19T08:25:05;32.92;;;7.95;;
34144;SDS011;69555;53.014;8.886;2023-11-19T08:27:32;42.72;;;9.35;;
34144;SDS011;69555;53.014;8.886;2023-11-19T08:29:57;57.22;;;14.13;;
34144;SDS011;69555;53.014;8.886;2023-11-19T08:32:23;52.92;;;14.68;;
34144;SDS011;69555;53.014;8.886;2023-11-19T08:34:52;42.15;;;10.25;;
34144;SDS011;69555;53.014;8.886;2023-11-19T08:37:18;48.58;;;8.73;;
34144;SDS011;69555;53.014;8.886;2023-11-19T08:39:47;33.53;;;7.50;;
34144;SDS011;69555;53.014;8.886;2023-11-19T08:42:15;45.28;;;9.05;;
34144;SDS011;69555;53.014;8.886;2023-11-19T08:44:42;38.88;;;9.35;;
34144;SDS011;69555;53.014;8.886;2023-11-19T08:47:10;34.85;;;6.78;;
34144;SDS011;69555;53.014;8.886;2023-11-19T08:49:37;42.65;;;7.03;;
34144;SDS011;69555;53.014;8.886;2023-11-19T08:52:05;43.33;;;7.53;;
34144;SDS011;69555;53.014;8.886;2023-11-19T08:54:34;29.30;;;4.88;;
34144;SDS011;69555;53.014;8.886;2023-11-19T08:57:01;36.45;;;10.63;;
34144;SDS011;69555;53.014;8.886;2023-11-19T08:59:29;29.77;;;5.72;;
34144;SDS011;69555;53.014;8.886;2023-11-19T09:01:56;35.00;;;9.10;;
34144;SDS011;69555;53.014;8.886;2023-11-19T09:04:23;60.78;;;10.93;;
34144;SDS011;69555;53.014;8.886;2023-11-19T09:06:50;41.28;;;11.23;;
34144;SDS011;69555;53.014;8.886;2023-11-19T09:09:16;46.53;;;11.60;;
34144;SDS011;69555;53.014;8.886;2023-11-19T09:11:43;39.92;;;7.10;;
34144;SDS011;69555;53.014;8.886;2023-11-19T09:14:10;51.75;;;10.40;;
34144;SDS011;69555;53.014;8.886;2023-11-19T09:16:36;40.75;;;7.28;;
34144;SDS011;69555;53.014;8.886;2023-11-19T09:19:06;42.13;;;7.60;;
34144;SDS011;69555;53.014;8.886;2023-11-19T09:21:32;46.45;;;9.13;;
34144;SDS011;69555;53.014;8.886;2023-11-19T09:24:00;52.53;;;8.75;;
34144;SDS011;69555;53.014;8.886;2023-11-19T09:26:27;33.22;;;8.73;;
34144;SDS011;69555;53.014;8.886;2023-11-19T09:28:54;86.03;;;28.35;;
34144;SDS011;69555;53.014;8.886;2023-11-19T09:31:20;34.30;;;9.13;;
34144;SDS011;69555;53.014;8.886;2023-11-19T09:33:47;41.70;;;9.95;;
34144;SDS011;69555;53.014;8.886;2023-11-19T09:36:12;50.33;;;12.77;;
34144;SDS011;69555;53.014;8.886;2023-11-19T09:38:45;58.47;;;10.70;;
34144;SDS011;69555;53.014;8.886;2023-11-19T09:41:13;43.90;;;7.53;;
34144;SDS011;69555;53.014;8.886;2023-11-19T09:43:40;59.13;;;9.32;;
34144;SDS011;69555;53.014;8.886;2023-11-19T09:46:10;46.28;;;8.60;;
34144;SDS011;69555;53.014;8.886;2023-11-19T09:48:41;63.42;;;8.75;;
34144;SDS011;69555;53.014;8.886;2023-11-19T09:51:09;52.30;;;8.23;;
34144;SDS011;69555;53.014;8.886;2023-11-19T09:53:37;57.72;;;9.82;;
34144;SDS011;69555;53.014;8.886;2023-11-19T09:56:04;72.25;;;15.85;;
34144;SDS011;69555;53.014;8.886;2023-11-19T09:58:32;59.08;;;13.90;;
34144;SDS011;69555;53.014;8.886;2023-11-19T10:00:59;34.45;;;6.82;;
34144;SDS011;69555;53.014;8.886;2023-11-19T10:03:34;47.30;;;8.13;;
34144;SDS011;69555;53.014;8.886;2023-11-19T10:06:07;44.20;;;7.68;;
34144;SDS011;69555;53.014;8.886;2023-11-19T10:08:37;37.17;;;7.53;;
34144;SDS011;69555;53.014;8.886;2023-11-19T10:11:07;39.70;;;6.95;;
34144;SDS011;69555;53.014;8.886;2023-11-19T10:13:36;36.30;;;6.22;;
34144;SDS011;69555;53.014;8.886;2023-11-19T10:16:10;27.70;;;6.55;;
34144;SDS011;69555;53.014;8.886;2023-11-19T10:18:48;60.75;;;9.52;;
34144;SDS011;69555;53.014;8.886;2023-11-19T10:21:22;41.90;;;7.70;;
34144;SDS011;69555;53.014;8.886;2023-11-19T10:23:52;42.20;;;6.55;;
34144;SDS011;69555;53.014;8.886;2023-11-19T10:26:20;32.50;;;6.63;;
34144;SDS011;69555;53.014;8.886;2023-11-19T10:28:47;33.80;;;5.93;;
34144;SDS011;69555;53.014;8.886;2023-11-19T10:31:15;33.58;;;7.68;;
34144;SDS011;69555;53.014;8.886;2023-11-19T10:33:43;43.80;;;6.65;;
34144;SDS011;69555;53.014;8.886;2023-11-19T10:36:10;37.88;;;7.35;;
34144;SDS011;69555;53.014;8.886;2023-11-19T10:38:39;38.85;;;9.00;;
34144;SDS011;69555;53.014;8.886;2023-11-19T10:41:07;32.90;;;6.72;;
34144;SDS011;69555;53.014;8.886;2023-11-19T10:43:43;34.63;;;6.38;;
34144;SDS011;69555;53.014;8.886;2023-11-19T10:46:16;36.35;;;7.05;;
34144;SDS011;69555;53.014;8.886;2023-11-19T10:48:47;40.92;;;7.07;;
34144;SDS011;69555;53.014;8.886;2023-11-19T10:51:13;35.03;;;7.35;;
34144;SDS011;69555;53.014;8.886;2023-11-19T10:53:48;34.75;;;6.63;;
34144;SDS011;69555;53.014;8.886;2023-11-19T10:56:16;40.30;;;6.40;;
34144;SDS011;69555;53.014;8.886;2023-11-19T10:58:45;31.95;;;5.95;;
34144;SDS011;69555;53.014;8.886;2023-11-19T11:01:16;41.20;;;9.30;;
34144;SDS011;69555;53.014;8.886;2023-11-19T11:03:50;38.72;;;7.63;;
34144;SDS011;69555;53.014;8.886;2023-11-19T11:06:20;33.90;;;6.00;;
34144;SDS011;69555;53.014;8.886;2023-11-19T11:08:48;34.92;;;8.40;;
34144;SDS011;69555;53.014;8.886;2023-11-19T11:11:16;29.95;;;7.43;;
34144;SDS011;69555;53.014;8.886;2023-11-19T11:13:47;49.20;;;8.07;;
34144;SDS011;69555;53.014;8.886;2023-11-19T11:16:16;44.85;;;9.02;;
34144;SDS011;69555;53.014;8.886;2023-11-19T11:18:47;52.15;;;11.88;;
34144;SDS011;69555;53.014;8.886;2023-11-19T11:21:17;47.22;;;7.72;;
34144;SDS011;69555;53.014;8.886;2023-11-19T11:34:52;34.85;;;6.50;;
34144;SDS011;69555;53.014;8.886;2023-11-19T11:37:37;45.22;;;6.60;;
34144;SDS011;69555;53.014;8.886;2023-11-19T11:40:15;49.97;;;9.90;;
34144;SDS011;69555;53.014;8.886;2023-11-19T11:42:42;54.70;;;7.07;;
34144;SDS011;69555;53.014;8.886;2023-11-19T11:45:14;35.97;;;7.60;;
34144;SDS011;69555;53.014;8.886;2023-11-19T11:50:53;42.28;;;6.75;;
34144;SDS011;69555;53.014;8.886;2023-11-19T11:53:25;47.45;;;7.18;;
34144;SDS011;69555;53.014;8.886;2023-11-19T11:55:54;38.08;;;8.30;;
34144;SDS011;69555;53.014;8.886;2023-11-19T11:58:25;42.15;;;9.25;;
34144;SDS011;69555;53.014;8.886;2023-11-19T12:00:53;44.67;;;7.13;;
34144;SDS011;69555;53.014;8.886;2023-11-19T12:03:20;52.20;;;9.55;;
34144;SDS011;69555;53.014;8.886;2023-11-19T12:05:48;45.45;;;7.82;;
34144;SDS011;69555;53.014;8.886;2023-11-19T12:08:19;41.78;;;8.63;;
34144;SDS011;69555;53.014;8.886;2023-11-19T12:10:51;44.35;;;7.20;;
34144;SDS011;69555;53.014;8.886;2023-11-19T12:13:20;45.13;;;8.30;;
34144;SDS011;69555;53.014;8.886;2023-11-19T12:18:28;47.55;;;7.70;;
34144;SDS011;69555;53.014;8.886;2023-11-19T12:20:56;51.00;;;8.77;;
34144;SDS011;69555;53.014;8.886;2023-11-19T12:23:23;38.20;;;6.65;;
34144;SDS011;69555;53.014;8.886;2023-11-19T12:25:50;42.25;;;8.07;;
34144;SDS011;69555;53.014;8.886;2023-11-19T12:28:17;34.55;;;8.10;;
34144;SDS011;69555;53.014;8.886;2023-11-19T12:30:49;50.20;;;7.50;;
34144;SDS011;69555;53.014;8.886;2023-11-19T12:33:16;41.13;;;7.10;;
34144;SDS011;69555;53.014;8.886;2023-11-19T12:35:44;53.65;;;8.15;;
34144;SDS011;69555;53.014;8.886;2023-11-19T12:38:22;53.60;;;7.18;;
34144;SDS011;69555;53.014;8.886;2023-11-19T12:43:37;32.10;;;7.95;;
34144;SDS011;69555;53.014;8.886;2023-11-19T12:46:25;29.95;;;6.05;;
34144;SDS011;69555;53.014;8.886;2023-11-19T12:48:53;34.83;;;5.33;;
34144;SDS011;69555;53.014;8.886;2023-11-19T12:51:20;34.28;;;7.00;;
34144;SDS011;69555;53.014;8.886;2023-11-19T12:53:52;30.98;;;6.35;;
34144;SDS011;69555;53.014;8.886;2023-11-19T12:56:24;32.17;;;6.68;;
34144;SDS011;69555;53.014;8.886;2023-11-19T12:58:50;41.22;;;9.27;;
34144;SDS011;69555;53.014;8.886;2023-11-19T13:01:17;26.90;;;6.10;;
34144;SDS011;69555;53.014;8.886;2023-11-19T13:03:45;59.85;;;17.83;;
34144;SDS011;69555;53.014;8.886;2023-11-19T13:06:13;61.08;;;18.42;;
34144;SDS011;69555;53.014;8.886;2023-11-19T13:08:49;47.22;;;12.98;;
34144;SDS011;69555;53.014;8.886;2023-11-19T13:11:39;26.65;;;5.57;;
34144;SDS011;69555;53.014;8.886;2023-11-19T13:14:07;19.60;;;3.85;;
34144;SDS011;69555;53.014;8.886;2023-11-19T13:16:36;17.95;;;4.82;;
34144;SDS011;69555;53.014;8.886;2023-11-19T13:19:03;40.47;;;12.55;;
34144;SDS011;69555;53.014;8.886;2023-11-19T13:21:29;12.32;;;2.80;;
34144;SDS011;69555;53.014;8.886;2023-11-19T13:23:56;110.57;;;33.63;;
34144;SDS011;69555;53.014;8.886;2023-11-19T13:26:23;16.38;;;2.70;;
34144;SDS011;69555;53.014;8.886;2023-11-19T13:28:49;12.15;;;2.45;;
34144;SDS011;69555;53.014;8.886;2023-11-19T13:31:16;18.20;;;3.95;;
34144;SDS011;69555;53.014;8.886;2023-11-19T13:33:43;21.88;;;4.85;;
34144;SDS011;69555;53.014;8.886;2023-11-19T13:36:09;26.50;;;7.07;;
34144;SDS011;69555;53.014;8.886;2023-11-19T13:38:36;16.92;;;4.38;;
34144;SDS011;69555;53.014;8.886;2023-11-19T13:41:03;19.02;;;3.67;;
34144;SDS011;69555;53.014;8.886;2023-11-19T13:43:30;22.00;;;5.50;;
34144;SDS011;69555;53.014;8.886;2023-11-19T13:45:57;57.45;;;16.27;;
34144;SDS011;69555;53.014;8.886;2023-11-19T13:48:24;22.13;;;4.35;;
34144;SDS011;69555;53.014;8.886;2023-11-19T13:50:53;21.83;;;5.00;;
34144;SDS011;69555;53.014;8.886;2023-11-19T13:53:19;15.05;;;3.90;;
34144;SDS011;69555;53.014;8.886;2023-11-19T13:55:47;50.13;;;12.27;;
34144;SDS011;69555;53.014;8.886;2023-11-19T13:58:16;21.30;;;4.32;;
34144;SDS011;69555;53.014;8.886;2023-11-19T14:00:42;26.92;;;5.13;;
34144;SDS011;69555;53.014;8.886;2023-11-19T14:03:09;25.60;;;5.50;;
34144;SDS011;69555;53.014;8.886;2023-11-19T14:05:38;25.98;;;6.43;;
34144;SDS011;69555;53.014;8.886;2023-11-19T14:08:07;23.80;;;5.93;;
34144;SDS011;69555;53.014;8.886;2023-11-19T14:10:40;31.60;;;12.23;;
34144;SDS011;69555;53.014;8.886;2023-11-19T14:13:07;36.97;;;9.85;;
34144;SDS011;69555;53.014;8.886;2023-11-19T14:15:34;51.03;;;13.73;;
34144;SDS011;69555;53.014;8.886;2023-11-19T14:18:02;53.47;;;11.82;;
34144;SDS011;69555;53.014;8.886;2023-11-19T14:20:29;38.17;;;10.60;;
34144;SDS011;69555;53.014;8.886;2023-11-19T14:22:56;28.83;;;6.85;;
34144;SDS011;69555;53.014;8.886;2023-11-19T14:25:22;36.08;;;7.55;;
34144;SDS011;69555;53.014;8.886;2023-11-19T14:27:49;30.27;;;6.53;;
34144;SDS011;69555;53.014;8.886;2023-11-19T14:30:16;33.38;;;7.05;;
34144;SDS011;69555;53.014;8.886;2023-11-19T14:32:43;64.95;;;20.67;;
34144;SDS011;69555;53.014;8.886;2023-11-19T14:35:12;34.05;;;7.30;;
34144;SDS011;69555;53.014;8.886;2023-11-19T14:37:39;25.73;;;5.70;;
34144;SDS011;69555;53.014;8.886;2023-11-19T14:40:06;34.00;;;10.68;;
34144;SDS011;69555;53.014;8.886;2023-11-19T14:42:35;129.07;;;44.13;;
34144;SDS011;69555;53.014;8.886;2023-11-19T14:45:03;24.50;;;6.30;;
34144;SDS011;69555;53.014;8.886;2023-11-19T14:47:30;24.55;;;5.00;;
34144;SDS011;69555;53.014;8.886;2023-11-19T14:49:57;24.35;;;5.35;;
34144;SDS011;69555;53.014;8.886;2023-11-19T14:52:23;24.10;;;5.85;;
34144;SDS011;69555;53.014;8.886;2023-11-19T14:54:50;24.80;;;5.78;;
34144;SDS011;69555;53.014;8.886;2023-11-19T14:57:20;14.38;;;4.10;;
34144;SDS011;69555;53.014;8.886;2023-11-19T14:59:46;18.33;;;4.45;;